createdAt,value
2023-04-26T00:02:28.023Z,66.41
2023-04-26T00:04:56.764Z,66.40
2023-04-26T00:07:28.860Z,67.21
2023-04-26T00:09:57.270Z,66.30
2023-04-26T00:12:24.880Z,65.86
2023-04-26T00:14:52.812Z,66.04
2023-04-26T00:17:20.713Z,66.16
2023-04-26T00:19:48.272Z,66.39
2023-04-26T00:22:15.975Z,66.41
2023-04-26T00:24:43.768Z,66.63
2023-04-26T00:27:11.527Z,66.90
2023-04-26T00:29:39.060Z,66.93
2023-04-26T00:32:07.026Z,67.07
2023-04-26T00:34:36.162Z,67.21
2023-04-26T00:37:05.494Z,67.51
2023-04-26T00:39:33.200Z,67.25
2023-04-26T00:42:00.955Z,67.42
2023-04-26T00:44:28.711Z,67.30
2023-04-26T00:46:56.482Z,67.55
2023-04-26T00:49:28.523Z,67.52
2023-04-26T00:51:56.298Z,67.49
2023-04-26T00:54:25.727Z,67.71
2023-04-26T00:56:54.455Z,67.48
2023-04-26T00:59:23.749Z,67.34
2023-04-26T01:01:51.346Z,67.61
2023-04-26T01:04:19.327Z,68.03
2023-04-26T01:06:47.856Z,67.91
2023-04-26T01:09:16.242Z,68.07
2023-04-26T01:11:44.832Z,68.26
2023-04-26T01:14:14.231Z,68.27
2023-04-26T01:16:42.186Z,68.35
2023-04-26T01:19:12.553Z,68.16
2023-04-26T01:21:41.775Z,68.17
2023-04-26T01:24:13.551Z,68.64
2023-04-26T01:26:46.710Z,68.12
2023-04-26T01:29:19.338Z,68.31
2023-04-26T01:31:48.337Z,68.32
2023-04-26T01:34:16.686Z,68.35
2023-04-26T01:36:47.374Z,68.40
2023-04-26T01:39:15.209Z,68.32
2023-04-26T01:41:43.595Z,68.65
2023-04-26T01:44:11.446Z,68.88
2023-04-26T01:46:39.161Z,69.05
2023-04-26T01:49:06.846Z,69.12
2023-04-26T01:51:34.508Z,69.05
2023-04-26T01:54:02.462Z,69.04
2023-04-26T01:56:30.158Z,69.22
2023-04-26T01:58:59.293Z,69.18
2023-04-26T02:01:27.051Z,69.18
2023-04-26T02:03:54.718Z,69.34
2023-04-26T02:06:22.237Z,69.14
2023-04-26T02:08:53.513Z,69.23
2023-04-26T02:11:21.806Z,69.32
2023-04-26T02:13:49.414Z,69.08
2023-04-26T02:16:17.207Z,69.34
2023-04-26T02:18:46.268Z,69.45
2023-04-26T02:21:17.334Z,69.53
2023-04-26T02:23:45.860Z,69.53
2023-04-26T02:26:14.072Z,69.53
2023-04-26T02:28:44.383Z,69.65
2023-04-26T02:31:12.011Z,69.60
2023-04-26T02:33:39.569Z,69.83
2023-04-26T02:36:07.557Z,69.70
2023-04-26T02:38:36.820Z,69.69
2023-04-26T02:41:06.002Z,69.84
2023-04-26T02:43:34.685Z,69.77
2023-04-26T02:46:02.449Z,70.20
2023-04-26T02:48:31.749Z,70.17
2023-04-26T02:50:59.459Z,70.30
2023-04-26T02:53:27.192Z,70.79
2023-04-26T02:55:56.543Z,71.08
2023-04-26T02:58:24.185Z,70.74
2023-04-26T03:00:52.200Z,70.88
2023-04-26T03:03:20.490Z,71.04
2023-04-26T03:05:48.164Z,71.13
2023-04-26T03:08:15.735Z,71.13
2023-04-26T03:10:45.992Z,71.33
2023-04-26T03:13:13.778Z,71.25
2023-04-26T03:15:46.230Z,71.80
2023-04-26T03:18:14.057Z,71.07
2023-04-26T03:20:42.610Z,71.23
2023-04-26T03:23:10.544Z,71.03
2023-04-26T03:25:38.062Z,70.94
2023-04-26T03:28:05.811Z,71.23
2023-04-26T03:30:33.670Z,71.28
2023-04-26T03:33:01.601Z,71.57
2023-04-26T03:35:29.295Z,71.71
2023-04-26T03:37:58.592Z,71.83
2023-04-26T03:40:27.751Z,71.85
2023-04-26T03:42:55.515Z,71.60
2023-04-26T03:45:23.216Z,71.69
2023-04-26T03:47:51.040Z,72.01
2023-04-26T03:50:19.894Z,72.10
2023-04-26T03:52:48.024Z,71.61
2023-04-26T03:55:17.072Z,71.80
2023-04-26T03:57:44.652Z,71.63
2023-04-26T04:00:13.863Z,71.57
2023-04-26T04:02:46.881Z,71.79
2023-04-26T04:05:23.688Z,71.69
2023-04-26T04:07:52.231Z,71.50
2023-04-26T04:10:23.282Z,71.49
2023-04-26T04:12:51.534Z,71.39
2023-04-26T04:15:20.448Z,71.38
2023-04-26T04:17:49.474Z,71.18
2023-04-26T04:20:17.373Z,71.18
2023-04-26T04:22:44.974Z,71.28
2023-04-26T04:25:14.189Z,71.43
2023-04-26T04:27:43.544Z,71.45
2023-04-26T04:30:12.496Z,71.89
2023-04-26T04:32:45.186Z,71.50
2023-04-26T04:35:14.544Z,71.26
2023-04-26T04:37:44.271Z,71.22
2023-04-26T04:40:13.581Z,71.41
2023-04-26T04:42:45.082Z,71.04
2023-04-26T04:45:14.936Z,70.92
2023-04-26T04:47:45.431Z,71.01
2023-04-26T04:50:13.414Z,70.91
2023-04-26T04:52:41.328Z,71.09
2023-04-26T04:55:10.062Z,71.34
2023-04-26T04:57:41.447Z,71.27
2023-04-26T05:00:12.838Z,70.90
2023-04-26T05:03:10.241Z,70.95
2023-04-26T05:05:38.262Z,71.09
2023-04-26T05:08:07.797Z,70.89
2023-04-26T05:10:36.116Z,70.88
2023-04-26T05:13:04.229Z,70.96
2023-04-26T05:15:31.871Z,70.81
2023-04-26T05:17:59.816Z,70.85
2023-04-26T05:20:27.597Z,71.01
2023-04-26T05:22:56.243Z,70.69
2023-04-26T05:25:23.805Z,71.08
2023-04-26T05:27:57.826Z,71.13
2023-04-26T05:30:38.028Z,71.00
2023-04-26T05:33:19.316Z,70.55
2023-04-26T05:35:58.017Z,70.31
2023-04-26T05:38:26.365Z,70.49
2023-04-26T05:40:53.982Z,70.33
2023-04-26T05:43:21.584Z,70.29
2023-04-26T05:45:58.371Z,70.90
2023-04-26T05:48:27.506Z,70.18
2023-04-26T05:50:55.098Z,70.16
2023-04-26T05:53:22.651Z,70.32
2023-04-26T05:55:50.445Z,70.40
2023-04-26T05:58:18.112Z,70.53
2023-04-26T06:00:46.701Z,70.24
2023-04-26T06:03:14.701Z,70.31
2023-04-26T06:05:42.956Z,70.29
2023-04-26T06:08:11.369Z,70.12
2023-04-26T06:10:39.042Z,69.74
2023-04-26T06:13:07.105Z,69.87
2023-04-26T06:15:37.455Z,69.78
2023-04-26T06:18:06.216Z,69.65
2023-04-26T06:20:33.820Z,69.51
2023-04-26T06:23:01.344Z,69.13
2023-04-26T06:25:29.246Z,69.16
2023-04-26T06:27:59.082Z,69.27
2023-04-26T06:30:27.243Z,68.90
2023-04-26T06:32:55.693Z,68.71
2023-04-26T06:35:24.823Z,68.65
2023-04-26T06:37:52.960Z,68.66
2023-04-26T06:40:21.256Z,68.83
2023-04-26T06:42:49.181Z,68.60
2023-04-26T06:45:34.844Z,68.25
2023-04-26T06:48:03.635Z,68.28
2023-04-26T06:50:31.974Z,68.17
2023-04-26T06:52:59.996Z,67.94
2023-04-26T06:55:27.483Z,67.84
2023-04-26T06:57:55.579Z,67.63
2023-04-26T07:00:23.482Z,67.94
2023-04-26T07:02:51.132Z,67.79
2023-04-26T07:05:18.953Z,67.45
2023-04-26T07:07:46.887Z,67.13
2023-04-26T07:10:14.778Z,67.38
2023-04-26T07:12:42.291Z,67.10
2023-04-26T07:15:10.586Z,66.93
2023-04-26T07:17:38.270Z,66.89
2023-04-26T07:20:06.457Z,66.72
2023-04-26T07:22:34.144Z,66.73
2023-04-26T07:25:02.048Z,66.42
2023-04-26T07:27:32.135Z,66.27
2023-04-26T07:29:59.614Z,66.52
2023-04-26T07:32:27.376Z,66.28
2023-04-26T07:34:54.983Z,66.22
2023-04-26T07:37:22.746Z,66.30
2023-04-26T07:39:50.332Z,66.31
2023-04-26T07:42:17.965Z,66.12
2023-04-26T07:44:45.575Z,66.11
2023-04-26T07:47:13.950Z,66.27
2023-04-26T07:49:41.642Z,65.95
2023-04-26T07:52:09.708Z,66.00
2023-04-26T07:54:37.311Z,66.14
2023-04-26T07:57:04.842Z,66.46
2023-04-26T07:59:32.403Z,66.46
2023-04-26T08:01:59.925Z,66.59
2023-04-26T08:04:35.320Z,67.14
2023-04-26T08:07:03.297Z,66.72
2023-04-26T08:09:31.070Z,67.07
2023-04-26T08:11:58.949Z,67.54
2023-04-26T08:14:26.661Z,67.62
2023-04-26T08:16:54.360Z,67.67
2023-04-26T08:19:22.194Z,68.00
2023-04-26T08:21:49.773Z,67.76
2023-04-26T08:24:17.206Z,67.97
2023-04-26T08:26:44.950Z,67.72
2023-04-26T08:29:12.428Z,67.70
2023-04-26T08:31:40.072Z,67.89
2023-04-26T08:34:11.306Z,67.50
2023-04-26T08:36:39.705Z,67.35
2023-04-26T08:39:07.969Z,67.39
2023-04-26T08:41:44.169Z,67.61
2023-04-26T08:44:12.226Z,67.27
2023-04-26T08:46:55.941Z,67.36
2023-04-26T08:49:45.017Z,67.09
2023-04-26T08:52:15.313Z,66.46
2023-04-26T08:54:43.466Z,66.16
2023-04-26T08:57:11.873Z,66.24
2023-04-26T08:59:40.124Z,66.41
2023-04-26T09:02:10.360Z,66.26
2023-04-26T09:04:38.333Z,65.83
2023-04-26T09:07:07.539Z,65.50
2023-04-26T09:09:38.913Z,65.29
2023-04-26T09:12:07.112Z,64.67
2023-04-26T09:14:35.821Z,64.83
2023-04-26T09:17:03.678Z,64.88
2023-04-26T09:19:44.271Z,64.69
2023-04-26T09:22:12.052Z,64.07
2023-04-26T09:24:57.647Z,64.20
2023-04-26T09:27:39.589Z,63.13
2023-04-26T09:30:18.419Z,62.96
2023-04-26T09:32:58.560Z,63.41
2023-04-26T09:35:33.198Z,62.95
2023-04-26T09:38:12.154Z,62.44
2023-04-26T09:40:44.118Z,62.36
2023-04-26T09:43:17.417Z,62.59
2023-04-26T09:45:53.948Z,62.98
2023-04-26T09:48:30.919Z,63.70
2023-04-26T09:51:10.469Z,64.42
2023-04-26T09:53:50.416Z,65.42
2023-04-26T09:56:22.204Z,65.55
2023-04-26T09:58:53.464Z,65.70
2023-04-26T10:01:21.831Z,65.40
2023-04-26T10:03:50.477Z,65.33
2023-04-26T10:06:18.954Z,65.46
2023-04-26T10:08:46.986Z,65.47
2023-04-26T10:11:14.789Z,65.51
2023-04-26T10:13:43.184Z,65.92
2023-04-26T10:16:12.678Z,65.98
2023-04-26T10:18:41.159Z,65.65
2023-04-26T10:21:13.064Z,65.95
2023-04-26T10:23:41.623Z,65.37
2023-04-26T10:26:50.570Z,66.11
2023-04-26T10:29:19.559Z,65.00
2023-04-26T10:32:02.788Z,65.45
2023-04-26T10:34:32.524Z,64.95
2023-04-26T10:37:16.978Z,65.21
2023-04-26T10:39:46.490Z,64.53
2023-04-26T10:42:28.219Z,64.71
2023-04-26T10:45:26.291Z,63.80
2023-04-26T10:48:27.995Z,62.65
2023-04-26T10:51:01.541Z,60.83
2023-04-26T10:53:33.644Z,60.30
2023-04-26T10:56:01.506Z,59.68
2023-04-26T10:58:29.034Z,59.53
2023-04-26T11:01:07.525Z,58.17
2023-04-26T11:03:36.263Z,58.31
2023-04-26T11:06:09.590Z,57.84
2023-04-26T11:08:37.571Z,58.61
2023-04-26T11:11:05.284Z,59.14
2023-04-26T11:13:34.213Z,59.89
2023-04-26T11:16:04.291Z,60.12
2023-04-26T11:18:33.303Z,59.92
2023-04-26T11:21:01.873Z,59.03
2023-04-26T11:23:31.632Z,58.19
2023-04-26T11:26:02.955Z,57.30
2023-04-26T11:28:34.095Z,55.63
2023-04-26T11:31:04.238Z,52.39
2023-04-26T11:33:34.526Z,50.19
2023-04-26T11:36:03.538Z,48.08
2023-04-26T11:38:31.224Z,45.00
2023-04-26T11:41:00.554Z,44.18
2023-04-26T11:43:36.760Z,45.31
2023-04-26T11:46:09.202Z,45.83
2023-04-26T11:48:38.682Z,44.48
2023-04-26T11:51:08.677Z,43.46
2023-04-26T11:53:42.125Z,43.20
2023-04-26T11:56:18.475Z,45.08
2023-04-26T11:58:47.836Z,46.56
2023-04-26T12:01:28.984Z,47.08
2023-04-26T12:03:58.760Z,47.67
2023-04-26T12:06:46.949Z,48.50
2023-04-26T12:09:14.641Z,49.60
2023-04-26T12:11:49.774Z,50.86
2023-04-26T12:14:17.243Z,51.52
2023-04-26T12:16:46.854Z,52.73
2023-04-26T12:19:15.325Z,53.22
2023-04-26T12:21:44.280Z,53.90
2023-04-26T12:24:35.925Z,53.52
2023-04-26T12:27:06.862Z,53.70
2023-04-26T12:29:35.588Z,53.60
2023-04-26T12:32:04.464Z,53.40
2023-04-26T12:34:32.230Z,53.48
2023-04-26T12:36:59.854Z,52.56
2023-04-26T12:39:27.531Z,51.73
2023-04-26T12:41:55.396Z,51.09
2023-04-26T12:44:23.096Z,49.96
2023-04-26T12:46:51.453Z,48.34
2023-04-26T12:49:19.275Z,47.10
2023-04-26T12:51:47.310Z,44.54
2023-04-26T12:54:14.881Z,43.23
2023-04-26T12:56:44.020Z,41.96
2023-04-26T12:59:11.661Z,39.80
2023-04-26T13:01:39.426Z,36.59
2023-04-26T13:04:07.321Z,33.82
2023-04-26T13:06:35.972Z,32.04
2023-04-26T13:09:03.959Z,32.83
2023-04-26T13:11:32.075Z,34.54
2023-04-26T13:13:59.942Z,36.70
2023-04-26T13:16:27.781Z,38.20
2023-04-26T13:18:56.386Z,39.91
2023-04-26T13:21:23.958Z,41.46
2023-04-26T13:23:51.744Z,42.05
2023-04-26T13:26:19.192Z,42.69
2023-04-26T13:28:47.714Z,43.55
2023-04-26T13:31:17.579Z,44.00
2023-04-26T13:33:47.584Z,44.74
2023-04-26T13:36:16.332Z,45.35
2023-04-26T13:38:44.766Z,45.79
2023-04-26T13:41:12.485Z,46.00
2023-04-26T13:43:40.315Z,45.95
2023-04-26T13:46:08.306Z,46.46
2023-04-26T13:48:35.816Z,46.79
2023-04-26T13:51:06.731Z,46.38
2023-04-26T13:53:34.825Z,46.31
2023-04-26T13:56:02.606Z,46.82
2023-04-26T13:58:30.239Z,46.44
2023-04-26T14:00:57.758Z,47.08
2023-04-26T14:03:26.884Z,46.79
2023-04-26T14:05:55.410Z,46.64
2023-04-26T14:08:23.325Z,47.08
2023-04-26T14:10:53.699Z,47.57
2023-04-26T14:13:21.672Z,47.66
2023-04-26T14:15:49.476Z,47.72
2023-04-26T14:18:17.632Z,48.53
2023-04-26T14:20:45.494Z,49.03
2023-04-26T14:23:13.129Z,49.02
2023-04-26T14:25:41.281Z,48.75
2023-04-26T14:28:09.098Z,49.04
2023-04-26T14:30:37.279Z,48.66
2023-04-26T14:33:05.399Z,48.91
2023-04-26T14:35:32.953Z,48.60
2023-04-26T14:38:00.692Z,48.45
2023-04-26T14:40:28.424Z,48.70
2023-04-26T14:42:55.935Z,48.56
2023-04-26T14:45:30.435Z,47.75
2023-04-26T14:48:05.483Z,47.84
2023-04-26T14:50:33.013Z,48.10
2023-04-26T14:53:00.936Z,47.35
2023-04-26T14:55:28.803Z,47.32
2023-04-26T14:57:56.475Z,47.77
2023-04-26T15:00:25.586Z,47.45
2023-04-26T15:02:53.433Z,47.39
2023-04-26T15:05:21.845Z,47.25
2023-04-26T15:07:49.620Z,47.54
2023-04-26T15:10:17.288Z,47.67
2023-04-26T15:12:46.729Z,47.44
2023-04-26T15:15:15.434Z,47.38
2023-04-26T15:17:43.255Z,48.10
2023-04-26T15:20:11.278Z,48.10
2023-04-26T15:22:39.131Z,48.01
2023-04-26T15:25:07.619Z,47.70
2023-04-26T15:27:36.917Z,47.86
2023-04-26T15:30:05.754Z,48.36
2023-04-26T15:32:35.359Z,47.65
2023-04-26T15:35:05.511Z,48.09
2023-04-26T15:37:33.161Z,48.51
2023-04-26T15:40:01.320Z,48.30
2023-04-26T15:42:29.202Z,48.02
2023-04-26T15:44:56.947Z,47.85
2023-04-26T15:47:24.557Z,47.96
2023-04-26T15:49:52.585Z,48.00
2023-04-26T15:52:20.222Z,47.38
2023-04-26T15:54:47.872Z,47.46
2023-04-26T15:57:15.358Z,46.97
2023-04-26T15:59:42.910Z,46.48
2023-04-26T16:02:10.538Z,46.65
2023-04-26T16:04:38.350Z,46.24
2023-04-26T16:07:06.069Z,46.73
2023-04-26T16:09:33.658Z,46.56
2023-04-26T16:12:01.442Z,46.55
2023-04-26T16:14:29.549Z,46.54
2023-04-26T16:16:59.433Z,47.07
2023-04-26T16:19:27.278Z,46.54
2023-04-26T16:21:54.840Z,46.65
2023-04-26T16:24:22.408Z,46.68
2023-04-26T16:26:50.410Z,46.77
2023-04-26T16:29:17.996Z,46.68
2023-04-26T16:31:45.884Z,47.00
2023-04-26T16:34:13.779Z,47.38
2023-04-26T16:36:41.477Z,47.14
2023-04-26T16:39:09.315Z,47.63
2023-04-26T16:41:37.231Z,47.26
2023-04-26T16:44:04.778Z,47.51
2023-04-26T16:46:32.504Z,48.17
2023-04-26T16:49:00.373Z,48.14
2023-04-26T16:51:28.595Z,48.28
2023-04-26T16:53:56.252Z,49.05
2023-04-26T16:56:23.752Z,48.36
2023-04-26T16:58:51.780Z,48.84
2023-04-26T17:01:19.359Z,48.62
2023-04-26T17:03:47.326Z,48.68
2023-04-26T17:06:15.044Z,48.37
2023-04-26T17:08:42.685Z,47.96
2023-04-26T17:11:13.933Z,47.49
2023-04-26T17:13:41.531Z,47.88
2023-04-26T17:16:09.633Z,47.75
2023-04-26T17:18:37.702Z,47.53
2023-04-26T17:21:05.965Z,47.45
2023-04-26T17:23:34.081Z,47.50
2023-04-26T17:26:02.627Z,47.37
2023-04-26T17:28:31.409Z,47.28
2023-04-26T17:30:59.605Z,47.24
2023-04-26T17:33:27.199Z,47.26
2023-04-26T17:35:54.857Z,47.33
2023-04-26T17:38:22.520Z,47.23
2023-04-26T17:40:54.358Z,47.13
2023-04-26T17:43:22.507Z,47.32
2023-04-26T17:45:50.032Z,47.39
2023-04-26T17:48:17.780Z,47.28
2023-04-26T17:50:45.556Z,47.18
2023-04-26T17:53:13.292Z,47.26
2023-04-26T17:55:40.810Z,47.59
2023-04-26T17:58:08.531Z,47.57
2023-04-26T18:00:35.995Z,47.58
2023-04-26T18:03:05.155Z,47.52
2023-04-26T18:05:32.871Z,47.88
2023-04-26T18:08:00.512Z,47.89
2023-04-26T18:10:28.137Z,48.22
2023-04-26T18:12:55.612Z,48.07
2023-04-26T18:15:23.384Z,48.38
2023-04-26T18:17:51.147Z,48.50
2023-04-26T18:20:19.758Z,48.44
2023-04-26T18:22:47.630Z,48.87
2023-04-26T18:25:15.821Z,49.19
2023-04-26T18:27:43.552Z,49.29
2023-04-26T18:30:13.143Z,49.18
2023-04-26T18:32:41.332Z,49.27
2023-04-26T18:35:09.645Z,49.23
2023-04-26T18:37:38.015Z,49.39
2023-04-26T18:40:07.212Z,49.53
2023-04-26T18:42:34.856Z,49.57
2023-04-26T18:45:02.506Z,49.79
2023-04-26T18:47:32.280Z,50.40
2023-04-26T18:49:59.882Z,50.17
2023-04-26T18:52:27.384Z,50.50
2023-04-26T18:54:54.959Z,50.74
2023-04-26T18:57:23.156Z,50.86
2023-04-26T18:59:51.031Z,50.94
2023-04-26T19:02:18.649Z,51.14
2023-04-26T19:04:49.014Z,51.15
2023-04-26T19:07:18.030Z,51.62
2023-04-26T19:09:53.742Z,51.98
2023-04-26T19:12:22.582Z,52.25
2023-04-26T19:14:50.204Z,52.32
2023-04-26T19:17:17.850Z,52.05
2023-04-26T19:19:45.951Z,51.91
2023-04-26T19:22:13.565Z,52.14
2023-04-26T19:24:41.488Z,51.98
2023-04-26T19:27:09.097Z,51.88
2023-04-26T19:29:37.144Z,52.06
2023-04-26T19:32:07.075Z,51.75
2023-04-26T19:34:36.524Z,51.81
2023-04-26T19:37:04.108Z,51.85
2023-04-26T19:39:31.641Z,52.21
2023-04-26T19:42:01.389Z,52.02
2023-04-26T19:44:29.644Z,51.90
2023-04-26T19:46:57.285Z,52.30
2023-04-26T19:49:26.662Z,52.60
2023-04-26T19:51:55.515Z,52.52
2023-04-26T19:54:23.789Z,52.70
2023-04-26T19:56:51.776Z,52.62
2023-04-26T19:59:19.634Z,52.79
2023-04-26T20:01:47.222Z,52.77
2023-04-26T20:04:15.062Z,52.90
2023-04-26T20:06:42.724Z,53.31
2023-04-26T20:09:10.977Z,53.66
2023-04-26T20:11:38.799Z,53.60
2023-04-26T20:14:06.477Z,54.10
2023-04-26T20:16:34.304Z,54.29
2023-04-26T20:19:01.807Z,54.30
2023-04-26T20:21:29.369Z,54.18
2023-04-26T20:23:57.203Z,54.54
2023-04-26T20:26:24.889Z,54.64
2023-04-26T20:28:52.365Z,54.55
2023-04-26T20:31:19.890Z,54.81
2023-04-26T20:33:47.653Z,55.08
2023-04-26T20:36:15.436Z,55.30
2023-04-26T20:38:43.515Z,55.55
2023-04-26T20:41:11.173Z,55.68
2023-04-26T20:43:39.500Z,55.54
2023-04-26T20:46:07.204Z,55.68
2023-04-26T20:48:34.704Z,56.18
2023-04-26T20:51:03.307Z,56.03
2023-04-26T20:53:31.293Z,55.99
2023-04-26T20:55:59.085Z,56.66
2023-04-26T20:58:27.108Z,56.74
2023-04-26T21:00:55.737Z,56.67
2023-04-26T21:03:23.944Z,56.82
2023-04-26T21:05:51.597Z,56.74
2023-04-26T21:08:20.715Z,56.93
2023-04-26T21:10:48.744Z,56.95
2023-04-26T21:13:17.027Z,57.01
2023-04-26T21:15:44.597Z,57.04
2023-04-26T21:18:12.676Z,57.34
2023-04-26T21:20:40.460Z,57.41
2023-04-26T21:23:08.024Z,57.67
2023-04-26T21:25:35.745Z,57.64
2023-04-26T21:28:03.455Z,57.91
2023-04-26T21:30:31.228Z,58.06
2023-04-26T21:32:58.948Z,58.20
2023-04-26T21:35:26.512Z,58.42
2023-04-26T21:37:54.047Z,58.37
2023-04-26T21:40:21.610Z,58.53
2023-04-26T21:43:01.478Z,58.82
2023-04-26T21:45:32.240Z,58.68
2023-04-26T21:47:59.786Z,59.01
2023-04-26T21:50:27.516Z,59.06
2023-04-26T21:52:55.075Z,59.15
2023-04-26T21:55:22.757Z,59.19
2023-04-26T21:57:50.283Z,59.22
2023-04-26T22:00:18.220Z,59.39
2023-04-26T22:02:47.669Z,59.69
2023-04-26T22:05:15.555Z,59.57
2023-04-26T22:07:43.170Z,59.69
2023-04-26T22:10:10.976Z,59.52
2023-04-26T22:12:38.585Z,59.45
2023-04-26T22:15:06.717Z,59.72
2023-04-26T22:17:34.320Z,59.48
2023-04-26T22:20:02.151Z,59.68
2023-04-26T22:22:31.446Z,59.88
2023-04-26T22:24:59.432Z,59.78
2023-04-26T22:27:27.701Z,59.82
2023-04-26T22:29:55.397Z,59.92
2023-04-26T22:32:23.131Z,60.12
2023-04-26T22:34:51.001Z,59.94
2023-04-26T22:37:21.088Z,60.14
2023-04-26T22:39:49.713Z,60.07
2023-04-26T22:42:17.318Z,59.95
2023-04-26T22:44:45.234Z,60.18
2023-04-26T22:47:12.906Z,59.86
2023-04-26T22:49:40.603Z,60.05
2023-04-26T22:52:14.403Z,60.34
2023-04-26T22:54:45.262Z,60.21
2023-04-26T22:57:13.077Z,60.56
2023-04-26T22:59:40.909Z,60.54
2023-04-26T23:02:08.905Z,60.67
2023-04-26T23:04:36.476Z,60.28
2023-04-26T23:07:04.044Z,60.04
2023-04-26T23:09:32.427Z,60.04
2023-04-26T23:12:00.183Z,60.19
2023-04-26T23:14:29.674Z,60.27
2023-04-26T23:17:01.056Z,60.38
2023-04-26T23:19:28.790Z,60.39
2023-04-26T23:21:56.487Z,60.51
2023-04-26T23:24:24.111Z,60.81
2023-04-26T23:26:51.717Z,60.87
2023-04-26T23:29:19.322Z,60.95
2023-04-26T23:31:46.994Z,61.14
2023-04-26T23:34:14.668Z,61.19
2023-04-26T23:36:42.230Z,61.15
2023-04-26T23:39:09.875Z,61.26
2023-04-26T23:41:37.533Z,61.08
2023-04-26T23:44:05.185Z,61.12
2023-04-26T23:46:32.927Z,61.19
2023-04-26T23:49:00.614Z,61.21
2023-04-26T23:51:28.269Z,61.14
2023-04-26T23:53:56.044Z,61.03
2023-04-26T23:56:23.577Z,61.08
2023-04-26T23:58:51.423Z,61.14
